Adams Cove, New York
Current Conditions -  °F | °C
As of 5:56 PM on Tuesday 21 Oct 2014 (Local Time) from KART Reporting Station
Overcast Overcast  
Wind Chill: 41°   Ceiling: 800
Heat Index: 47°   Visibility: 9mi
Dew Point: 41°   Wind: 13mph
Humidity: 80%   Direction: 30°NNE
Pressure: 29.98"   Gusts: NA
Location:  44.0116°N, 76.0789°W
Report Text: KART 212156Z AUTO 03011KT 9SM OVC008 08/05 A2998 RMK AO2 RAE33 SLP154 P0000 T00830050
Loading
Personal Weather Stations






























Interactive Weather Map
Tropical Storm Tracking
New forecast layout! Learn more

10-Day Weather Forecast

Advertisements
Track Severe Weather on mobile